Time;durP1;ratioP1;P1;durP2;ratioP2;P2;SDS_P1;SDS_P2;PMS_P1;PMS_P2;Temp;Humidity;BMP_temperature;BMP_pressure;BME280_temperature;BME280_humidity;BME280_pressure;Samples;Min_cycle;Max_cycle;Signal;HPM_P1;HPM_P2
2022/04/02 00:03:22;;;;;;;2.58;0.43;;;1.00;99.90;;;;;;10388561;28;20050;-67
2022/04/02 00:08:25;;;;;;;0.90;0.50;;;1.00;99.90;;;;;;10389131;28;20049;-67
2022/04/02 00:13:27;;;;;;;2.60;0.40;;;1.00;99.90;;;;;;10384833;28;20054;-67
2022/04/02 00:18:29;;;;;;;0.43;0.40;;;1.00;99.90;;;;;;10384627;28;20117;-67
2022/04/02 00:23:40;;;;;;;1.77;0.68;;;0.90;99.90;;;;;;10389404;28;20052;-67
2022/04/02 00:28:44;;;;;;;0.68;0.50;;;1.00;99.90;;;;;;10390087;28;20041;-67
2022/04/02 00:33:48;;;;;;;1.10;0.60;;;1.00;99.90;;;;;;10389854;28;20049;-66
2022/04/02 00:38:49;;;;;;;2.00;0.50;;;0.90;99.90;;;;;;10386156;28;20049;-66
2022/04/02 00:44:00;;;;;;;0.60;0.43;;;0.90;99.90;;;;;;10386804;28;20107;-66
2022/04/02 00:49:02;;;;;;;1.85;0.50;;;0.90;99.90;;;;;;10390946;28;20037;-67
2022/04/02 00:54:04;;;;;;;4.93;0.90;;;0.90;99.90;;;;;;10390057;28;20123;-67
2022/04/02 00:59:08;;;;;;;2.47;0.57;;;0.90;99.90;;;;;;10386097;28;20065;-66
2022/04/02 01:04:10;;;;;;;2.17;0.50;;;0.90;99.90;;;;;;10387210;28;20048;-66
2022/04/02 01:09:12;;;;;;;5.80;0.90;;;0.80;99.90;;;;;;10387490;28;20134;-66
2022/04/02 01:14:13;;;;;;;1.65;0.55;;;0.80;99.90;;;;;;10385524;28;20053;-65
2022/04/02 01:19:15;;;;;;;2.30;0.57;;;0.70;99.90;;;;;;10388364;28;20049;-66
2022/04/02 01:24:17;;;;;;;0.75;0.40;;;0.70;99.90;;;;;;10387429;28;20537;-66
2022/04/02 01:29:19;;;;;;;1.02;0.50;;;0.70;99.90;;;;;;10382559;28;20133;-66
2022/04/02 01:34:21;;;;;;;2.25;0.40;;;0.80;99.90;;;;;;10385188;28;20523;-66
2022/04/02 01:39:23;;;;;;;0.80;0.32;;;0.70;99.90;;;;;;10384800;28;20053;-66
2022/04/02 01:44:24;;;;;;;0.77;0.60;;;0.70;99.90;;;;;;10385624;28;20045;-67
2022/04/02 01:49:26;;;;;;;0.73;0.40;;;0.70;99.90;;;;;;10383375;28;20463;-67
2022/04/02 01:54:28;;;;;;;3.30;0.70;;;0.60;99.90;;;;;;10387479;28;20099;-67
2022/04/02 01:59:30;;;;;;;0.90;0.40;;;0.60;99.90;;;;;;10383772;28;20466;-67
2022/04/02 02:04:32;;;;;;;0.60;0.28;;;0.60;99.90;;;;;;10383731;28;20049;-66
2022/04/02 02:09:34;;;;;;;2.70;0.60;;;0.60;99.90;;;;;;10386443;28;20112;-66
2022/04/02 02:14:36;;;;;;;2.08;0.55;;;0.60;99.90;;;;;;10383514;28;20554;-66
2022/04/02 02:19:37;;;;;;;1.40;0.47;;;0.60;99.90;;;;;;10387940;28;20042;-66
2022/04/02 02:24:39;;;;;;;2.35;0.20;;;0.50;99.90;;;;;;10393999;28;20119;-66
2022/04/02 02:29:41;;;;;;;1.35;0.40;;;0.50;99.90;;;;;;10390772;28;20080;-66
2022/04/02 02:40:04;;;;;;;5.93;0.77;;;0.50;99.90;;;;;;10382628;28;20550;-67
2022/04/02 02:45:06;;;;;;;1.38;0.65;;;0.50;99.90;;;;;;10391441;28;20053;-66
2022/04/02 02:50:08;;;;;;;1.58;0.52;;;0.50;99.90;;;;;;10385142;28;20057;-67
2022/04/02 02:55:10;;;;;;;0.95;0.43;;;0.50;99.90;;;;;;10388993;28;20103;-66
2022/04/02 03:00:14;;;;;;;1.00;0.43;;;0.50;99.90;;;;;;10391539;28;20084;-67
2022/04/02 03:05:16;;;;;;;1.25;0.63;;;0.50;99.90;;;;;;10393299;28;20104;-67
2022/04/02 03:10:25;;;;;;;2.05;0.75;;;0.50;99.90;;;;;;10385744;28;20048;-66
2022/04/02 03:15:27;;;;;;;3.70;0.60;;;0.40;99.90;;;;;;10387431;28;20065;-67
2022/04/02 03:20:28;;;;;;;2.08;0.50;;;0.40;99.90;;;;;;10388226;28;20045;-68
2022/04/02 03:25:31;;;;;;;5.00;0.65;;;0.40;99.90;;;;;;10388353;28;20049;-67
2022/04/02 03:30:33;;;;;;;0.93;0.60;;;0.40;99.90;;;;;;10388617;28;20053;-66
2022/04/02 03:35:35;;;;;;;2.33;0.57;;;0.40;99.90;;;;;;10387280;28;20107;-66
2022/04/02 03:40:37;;;;;;;1.75;1.30;;;0.30;99.90;;;;;;10378798;28;20081;-66
2022/04/02 03:45:38;;;;;;;4.38;0.70;;;0.40;99.90;;;;;;10390372;28;20053;-66
2022/04/02 03:50:40;;;;;;;1.52;0.88;;;0.40;99.90;;;;;;10389710;28;20107;-66
2022/04/02 03:55:42;;;;;;;1.02;0.77;;;0.40;99.90;;;;;;10391183;28;20107;-66
2022/04/02 04:00:43;;;;;;;2.20;1.00;;;0.30;99.90;;;;;;10387511;28;20549;-66
2022/04/02 04:05:49;;;;;;;1.45;0.80;;;0.40;99.90;;;;;;10388254;28;20045;-66
2022/04/02 04:10:51;;;;;;;1.23;0.77;;;0.30;99.90;;;;;;10390774;28;20057;-65
2022/04/02 04:15:53;;;;;;;11.18;1.23;;;0.30;99.90;;;;;;10387174;28;20676;-65
2022/04/02 04:20:55;;;;;;;5.28;0.90;;;0.30;99.90;;;;;;10389577;28;20084;-65
2022/04/02 04:25:57;;;;;;;8.75;1.20;;;0.30;99.90;;;;;;10390815;28;20107;-65
2022/04/02 04:30:59;;;;;;;1.38;0.90;;;0.30;99.90;;;;;;10388870;28;20037;-65
2022/04/02 04:36:01;;;;;;;4.72;1.10;;;0.30;99.90;;;;;;10389774;28;20370;-65
2022/04/02 04:41:03;;;;;;;6.82;1.55;;;0.30;99.90;;;;;;10385518;28;20099;-65
2022/04/02 04:46:05;;;;;;;6.43;0.90;;;0.30;99.90;;;;;;10387356;28;20053;-65
2022/04/02 04:51:07;;;;;;;1.85;1.10;;;0.30;99.90;;;;;;10387124;28;20491;-65
2022/04/02 04:56:08;;;;;;;2.35;1.00;;;0.30;99.90;;;;;;10386856;28;20111;-65
2022/04/02 05:01:11;;;;;;;3.17;1.13;;;0.30;99.90;;;;;;10386000;28;20061;-64
2022/04/02 05:06:13;;;;;;;2.97;1.05;;;0.30;99.90;;;;;;10386569;28;20053;-64
2022/04/02 05:11:15;;;;;;;2.40;0.63;;;0.40;99.90;;;;;;10388263;28;20053;-64
2022/04/02 05:16:17;;;;;;;1.00;0.60;;;0.40;99.90;;;;;;10385947;28;20057;-64
2022/04/02 05:21:19;;;;;;;1.58;0.90;;;0.40;99.90;;;;;;10388985;28;20045;-63
2022/04/02 05:26:21;;;;;;;2.60;0.55;;;0.40;99.90;;;;;;10382697;28;20060;-63
2022/04/02 05:31:27;;;;;;;1.20;0.82;;;0.40;99.90;;;;;;10386078;28;20053;-63
2022/04/02 05:36:29;;;;;;;2.70;1.20;;;0.60;99.90;;;;;;10386241;28;20045;-63
2022/04/02 05:41:31;;;;;;;1.33;0.80;;;0.40;99.90;;;;;;10385675;28;20045;-62
2022/04/02 05:46:33;;;;;;;3.53;0.90;;;0.40;99.90;;;;;;10382210;28;20057;-63
2022/04/02 05:51:35;;;;;;;1.25;1.00;;;0.40;99.90;;;;;;10388676;28;20044;-63
2022/04/02 05:56:37;;;;;;;4.15;1.00;;;0.40;99.90;;;;;;10386033;28;20052;-62
2022/04/02 06:01:39;;;;;;;2.05;1.00;;;0.40;99.90;;;;;;10382312;28;20064;-63
2022/04/02 06:06:41;;;;;;;4.05;0.90;;;0.40;99.90;;;;;;10385656;28;20477;-62
2022/04/02 06:11:45;;;;;;;4.80;0.90;;;0.40;99.90;;;;;;10387305;28;20052;-63
2022/04/02 06:16:47;;;;;;;3.13;1.08;;;0.40;99.90;;;;;;10386380;28;20049;-63
2022/04/02 06:21:48;;;;;;;1.48;0.80;;;0.40;99.90;;;;;;10378497;28;20152;-62
2022/04/02 06:26:50;;;;;;;1.25;0.90;;;0.50;99.90;;;;;;10373171;28;20042;-61
2022/04/02 06:31:52;;;;;;;1.55;0.77;;;0.50;99.90;;;;;;10383959;28;20053;-62
2022/04/02 06:36:54;;;;;;;3.05;0.45;;;0.50;99.90;;;;;;10385303;28;20037;-62
2022/04/02 06:41:56;;;;;;;1.85;1.05;;;0.50;99.90;;;;;;10383741;28;20357;-64
2022/04/02 06:46:59;;;;;;;1.67;0.68;;;0.60;99.90;;;;;;10382867;28;20081;-65
2022/04/02 06:52:01;;;;;;;2.00;0.80;;;0.60;99.90;;;;;;10385174;28;20095;-64
2022/04/02 06:57:03;;;;;;;2.00;0.55;;;0.70;99.90;;;;;;10382977;28;20041;-65
2022/04/02 07:02:05;;;;;;;2.60;0.60;;;0.70;99.90;;;;;;10384537;28;20487;-65
2022/04/02 07:07:07;;;;;;;2.15;0.70;;;0.80;99.90;;;;;;10383971;28;20057;-64
2022/04/02 07:12:09;;;;;;;0.95;0.52;;;0.90;99.90;;;;;;10385569;28;20053;-64
2022/04/02 07:17:12;;;;;;;2.42;0.70;;;0.90;99.90;;;;;;10384336;28;20065;-66
2022/04/02 07:22:16;;;;;;;2.78;0.98;;;1.00;99.90;;;;;;10388802;28;20049;-65
2022/04/02 07:27:27;;;;;;;5.10;1.13;;;1.00;99.90;;;;;;10388290;28;20168;-64
2022/04/02 07:32:29;;;;;;;1.67;0.80;;;1.10;99.90;;;;;;10381366;28;20045;-64
2022/04/02 07:38:09;;;;;;;12.20;1.00;;;1.10;99.90;;;;;;10385344;28;20033;-62
2022/04/02 07:43:29;;;;;;;6.47;1.15;;;1.20;99.90;;;;;;10341014;28;20530;-61
2022/04/02 07:48:34;;;;;;;6.72;1.25;;;1.20;99.90;;;;;;10387258;28;20038;-61
2022/04/02 07:53:42;;;;;;;1.83;0.80;;;1.40;99.90;;;;;;10388824;28;20103;-64
2022/04/02 07:58:52;;;;;;;4.68;1.25;;;1.40;99.90;;;;;;10383023;28;20057;-65
2022/04/02 08:03:55;;;;;;;1.95;0.50;;;1.50;99.90;;;;;;10386478;28;20487;-65
2022/04/02 08:08:58;;;;;;;2.30;0.70;;;1.60;99.90;;;;;;10388675;28;20041;-63
2022/04/02 08:14:01;;;;;;;1.42;0.80;;;1.70;99.70;;;;;;10381238;28;20067;-64
2022/04/02 08:19:05;;;;;;;1.48;1.02;;;1.80;99.80;;;;;;10386186;28;20049;-64
2022/04/02 08:24:07;;;;;;;1.75;0.60;;;1.90;99.50;;;;;;10387646;28;20042;-65
2022/04/02 08:29:12;;;;;;;2.15;0.73;;;2.00;97.60;;;;;;10389272;28;20391;-65
2022/04/02 08:34:13;;;;;;;0.73;0.43;;;2.10;96.30;;;;;;10385173;28;20049;-64
2022/04/02 08:39:35;;;;;;;3.75;0.73;;;2.20;94.40;;;;;;10383797;28;20045;-64
2022/04/02 08:44:56;;;;;;;2.95;0.65;;;2.30;92.40;;;;;;10382299;28;20052;-63
2022/04/02 08:50:10;;;;;;;3.08;0.40;;;2.40;92.00;;;;;;10382297;28;20056;-63
2022/04/02 08:55:20;;;;;;;1.08;0.55;;;2.50;91.10;;;;;;10385117;28;20058;-64
2022/04/02 09:00:26;;;;;;;1.08;0.40;;;2.60;92.10;;;;;;10376555;28;20045;-64
2022/04/02 09:06:07;;;;;;;2.60;0.65;;;2.60;90.30;;;;;;10384991;28;20049;-65
2022/04/02 09:11:31;;;;;;;1.73;0.50;;;2.70;90.90;;;;;;10358963;28;20771;-65
2022/04/02 09:16:48;;;;;;;1.83;0.70;;;2.80;90.40;;;;;;10380885;28;20053;-65
2022/04/02 09:22:05;;;;;;;4.00;0.68;;;2.90;90.50;;;;;;10384769;28;20555;-65
2022/04/02 09:27:15;;;;;;;4.35;1.02;;;3.00;90.40;;;;;;10386710;28;20153;-65
2022/04/02 09:32:47;;;;;;;2.15;0.90;;;3.20;94.20;;;;;;10387817;28;20466;-64
2022/04/02 09:38:04;;;;;;;2.47;1.40;;;3.20;90.20;;;;;;10379954;28;20045;-65
2022/04/02 09:43:31;;;;;;;2.40;1.00;;;3.30;89.80;;;;;;10378628;28;20126;-65
2022/04/02 09:49:00;;;;;;;1.48;0.60;;;3.30;88.60;;;;;;10387585;28;20519;-65
2022/04/02 09:54:11;;;;;;;2.35;0.77;;;3.40;88.20;;;;;;10383386;28;20053;-64
2022/04/02 09:59:50;;;;;;;7.70;1.42;;;3.40;86.30;;;;;;10382784;28;20041;-65
2022/04/02 10:04:57;;;;;;;2.92;1.08;;;3.40;88.00;;;;;;10377296;28;20613;-65
2022/04/02 10:10:08;;;;;;;1.95;1.00;;;3.60;88.10;;;;;;10383197;28;20088;-65
2022/04/02 10:15:11;;;;;;;2.08;0.93;;;3.70;85.90;;;;;;10387010;28;20053;-65
2022/04/02 10:20:14;;;;;;;2.13;1.30;;;3.70;88.10;;;;;;10387426;28;20045;-67
2022/04/02 10:25:16;;;;;;;1.33;0.82;;;3.80;86.10;;;;;;10386256;28;20053;-66
2022/04/02 10:30:19;;;;;;;2.50;1.10;;;3.70;84.20;;;;;;10383331;28;20124;-66
2022/04/02 10:35:26;;;;;;;2.95;1.25;;;3.80;84.00;;;;;;10382469;28;20408;-66
2022/04/02 10:40:30;;;;;;;5.30;1.20;;;4.00;82.20;;;;;;10383188;28;20072;-66
2022/04/02 10:45:39;;;;;;;2.28;1.15;;;4.20;81.00;;;;;;10390024;28;20367;-66
2022/04/02 10:50:49;;;;;;;1.92;1.20;;;4.20;79.40;;;;;;10392288;28;20045;-65
2022/04/02 10:55:58;;;;;;;1.83;0.90;;;4.30;78.70;;;;;;10395569;28;20115;-65
2022/04/02 11:01:03;;;;;;;2.63;1.20;;;4.30;77.70;;;;;;10388906;28;20048;-65
2022/04/02 11:06:05;;;;;;;3.92;0.90;;;4.50;79.50;;;;;;10383883;28;20063;-65
2022/04/02 11:11:27;;;;;;;2.85;1.10;;;4.60;79.10;;;;;;10385114;28;20080;-65
2022/04/02 11:16:40;;;;;;;2.63;1.10;;;4.80;76.80;;;;;;10386506;28;20643;-64
2022/04/02 11:21:55;;;;;;;6.32;1.30;;;4.60;78.70;;;;;;10388257;28;20041;-64
2022/04/02 11:26:59;;;;;;;2.17;1.10;;;4.60;78.70;;;;;;10378821;28;20053;-66
2022/04/02 11:32:02;;;;;;;2.88;1.05;;;4.70;77.80;;;;;;10384930;28;20041;-65
2022/04/02 11:37:07;;;;;;;2.83;1.17;;;4.70;76.20;;;;;;10388297;28;20053;-66
2022/04/02 11:42:14;;;;;;;2.90;1.40;;;4.90;76.40;;;;;;10383043;28;20049;-66
2022/04/02 11:47:29;;;;;;;3.42;1.08;;;4.90;79.50;;;;;;10393580;28;20084;-66
2022/04/02 11:52:52;;;;;;;1.75;0.93;;;5.10;76.70;;;;;;10390354;28;20080;-67
2022/04/02 11:57:58;;;;;;;2.70;0.80;;;5.30;75.70;;;;;;10388028;28;20045;-68
2022/04/02 12:03:00;;;;;;;2.83;0.90;;;5.40;73.70;;;;;;10391027;28;20703;-67
2022/04/02 12:08:03;;;;;;;3.42;0.75;;;5.10;71.80;;;;;;10388252;28;20038;-67
2022/04/02 12:13:16;;;;;;;1.48;0.70;;;5.00;72.70;;;;;;10392862;28;20053;-67
2022/04/02 12:18:19;;;;;;;3.08;0.80;;;4.90;74.10;;;;;;10391599;28;20058;-67
2022/04/02 12:23:20;;;;;;;1.15;0.47;;;5.00;73.20;;;;;;10390125;28;20076;-66
2022/04/02 12:28:23;;;;;;;4.25;1.77;;;4.90;72.00;;;;;;10384211;28;20052;-66
2022/04/02 12:33:25;;;;;;;1.67;0.57;;;5.00;73.30;;;;;;10387113;28;20108;-67
2022/04/02 12:38:33;;;;;;;1.20;0.77;;;5.00;72.70;;;;;;10387257;28;20066;-66
2022/04/02 12:43:46;;;;;;;1.05;0.57;;;5.00;72.10;;;;;;10383896;28;20049;-67
2022/04/02 12:48:48;;;;;;;2.40;0.80;;;5.10;73.50;;;;;;10388554;28;20053;-64
2022/04/02 12:54:03;;;;;;;2.85;0.80;;;5.20;72.70;;;;;;10387208;28;20045;-66
2022/04/02 12:59:17;;;;;;;1.63;0.88;;;5.20;71.50;;;;;;10385596;28;20045;-67
2022/04/02 13:04:24;;;;;;;2.28;0.75;;;5.10;69.80;;;;;;10384384;28;20053;-64
2022/04/02 13:09:35;;;;;;;1.70;0.60;;;4.90;67.80;;;;;;10382249;28;20759;-64
2022/04/02 13:14:42;;;;;;;2.22;0.80;;;4.80;69.50;;;;;;10382217;28;20056;-65
2022/04/02 13:25:17;;;;;;;3.15;1.00;;;5.00;71.00;;;;;;10387243;28;20045;-65
2022/04/02 13:30:26;;;;;;;2.17;0.80;;;5.10;70.70;;;;;;10366666;28;20107;-66
2022/04/02 13:36:00;;;;;;;1.92;0.90;;;5.00;67.70;;;;;;10377703;28;20053;-66
2022/04/02 13:41:04;;;;;;;1.30;0.60;;;5.20;68.80;;;;;;10344344;28;20053;-65
2022/04/02 13:46:21;;;;;;;4.55;0.90;;;5.00;66.60;;;;;;10385918;28;20102;-65
2022/04/02 13:51:37;;;;;;;2.50;0.93;;;5.20;67.30;;;;;;10381173;28;20056;-64
2022/04/02 13:56:40;;;;;;;4.63;0.90;;;5.20;68.50;;;;;;10386385;28;20049;-65
2022/04/02 14:01:53;;;;;;;1.52;0.60;;;5.30;69.50;;;;;;10383247;28;20088;-65
2022/04/02 14:07:00;;;;;;;1.98;0.80;;;5.40;68.80;;;;;;10382934;28;20076;-65
2022/04/02 14:12:04;;;;;;;1.58;0.43;;;5.30;68.20;;;;;;10379704;28;20045;-65
2022/04/02 14:17:09;;;;;;;0.60;0.50;;;5.20;67.40;;;;;;10384605;28;20078;-64
2022/04/02 14:22:13;;;;;;;2.20;0.77;;;5.00;68.60;;;;;;10390604;28;20045;-65
2022/04/02 14:27:32;;;;;;;3.40;0.85;;;5.00;69.50;;;;;;10391774;28;20051;-65
2022/04/02 14:33:23;;;;;;;1.30;0.60;;;4.90;69.50;;;;;;10383954;28;20416;-65
2022/04/02 14:38:43;;;;;;;2.22;0.73;;;4.80;70.40;;;;;;10386400;28;20072;-65
2022/04/02 14:44:20;;;;;;;3.78;1.00;;;4.80;71.00;;;;;;10389365;28;20045;-65
2022/04/02 14:50:11;;;;;;;4.47;1.08;;;4.80;71.40;;;;;;10369181;28;20119;-66
2022/04/02 14:55:57;;;;;;;5.20;1.40;;;4.80;71.20;;;;;;10390457;28;20783;-65
2022/04/02 15:01:16;;;;;;;4.20;1.20;;;4.70;71.20;;;;;;10366714;28;20111;-64
2022/04/02 15:07:15;;;;;;;2.50;1.40;;;4.60;72.80;;;;;;10392393;28;20623;-65
2022/04/02 15:12:24;;;;;;;4.10;1.40;;;4.60;73.30;;;;;;10223767;28;20133;-65
2022/04/02 15:17:30;;;;;;;2.10;1.10;;;4.60;74.70;;;;;;10367203;28;20053;-62
2022/04/02 15:22:32;;;;;;;3.13;0.90;;;4.50;77.10;;;;;;10389709;28;20072;-63
2022/04/02 15:27:54;;;;;;;4.20;0.93;;;4.20;77.60;;;;;;10389781;28;20045;-64
2022/04/02 15:33:14;;;;;;;6.97;1.55;;;4.10;78.70;;;;;;10388044;28;20041;-64
2022/04/02 15:38:26;;;;;;;4.75;1.42;;;4.00;80.90;;;;;;10386846;28;20037;-64
2022/04/02 15:43:39;;;;;;;2.13;1.23;;;4.00;82.00;;;;;;10385882;28;20045;-65
2022/04/02 15:49:27;;;;;;;3.10;1.23;;;4.00;81.50;;;;;;10384757;28;20045;-65
2022/04/02 15:54:37;;;;;;;2.30;1.05;;;3.90;82.00;;;;;;10387350;28;20510;-64
2022/04/02 15:59:45;;;;;;;2.47;1.13;;;3.90;82.10;;;;;;10386718;28;20055;-64
2022/04/02 16:05:08;;;;;;;;;;;3.90;82.10;;;;;;10388286;28;20049;-65
2022/04/02 16:10:13;;;;;;;4.78;1.30;;;4.10;81.50;;;;;;10387576;28;19971;-64
2022/04/02 16:15:27;;;;;;;4.30;0.85;;;4.10;81.50;;;;;;10388225;28;20049;-63
2022/04/02 16:20:29;;;;;;;2.83;0.77;;;4.20;80.50;;;;;;10387177;28;20045;-64
2022/04/02 16:25:30;;;;;;;1.60;0.80;;;4.20;80.70;;;;;;10386876;28;20542;-63
2022/04/02 16:30:32;;;;;;;2.33;0.98;;;4.20;80.00;;;;;;10387461;28;20049;-65
2022/04/02 16:35:35;;;;;;;1.98;1.05;;;4.20;80.20;;;;;;10386595;28;20048;-64
2022/04/02 16:40:37;;;;;;;4.05;1.40;;;4.20;80.20;;;;;;10382853;28;20049;-66
2022/04/02 16:45:39;;;;;;;2.42;0.95;;;4.20;80.80;;;;;;10387078;28;20579;-64
2022/04/02 16:50:40;;;;;;;1.33;0.70;;;4.20;80.50;;;;;;10390765;28;20041;-64
2022/04/02 16:55:53;;;;;;;1.67;0.80;;;4.10;79.20;;;;;;10387892;28;20048;-63
2022/04/02 17:00:57;;;;;;;1.92;0.95;;;4.10;78.50;;;;;;10385737;28;20099;-64
2022/04/02 17:05:58;;;;;;;3.58;0.98;;;4.00;78.50;;;;;;10389046;28;20049;-64
2022/04/02 17:11:01;;;;;;;2.70;0.75;;;4.00;78.50;;;;;;10389030;28;20052;-64
2022/04/02 17:16:15;;;;;;;3.75;0.68;;;3.90;79.00;;;;;;10383773;28;20053;-64
2022/04/02 17:21:17;;;;;;;3.03;0.88;;;3.90;78.80;;;;;;10378787;28;20041;-64
2022/04/02 17:26:32;;;;;;;1.90;1.00;;;3.80;78.70;;;;;;10383645;28;20050;-61
2022/04/02 17:31:34;;;;;;;3.88;0.82;;;3.70;79.40;;;;;;10383969;28;20045;-63
2022/04/02 17:36:36;;;;;;;2.67;1.00;;;3.70;80.10;;;;;;10385615;28;20484;-62
2022/04/02 17:41:38;;;;;;;2.67;0.98;;;3.60;80.90;;;;;;10383497;28;20307;-63
2022/04/02 17:46:40;;;;;;;5.07;1.00;;;3.60;83.10;;;;;;10386757;28;20470;-63
2022/04/02 17:51:42;;;;;;;2.47;1.15;;;3.50;83.20;;;;;;10381057;28;20034;-61
2022/04/02 17:56:43;;;;;;;1.85;1.05;;;3.50;83.30;;;;;;10386112;28;20045;-62
2022/04/02 18:01:45;;;;;;;1.50;0.77;;;3.50;84.90;;;;;;10382904;28;20052;-61
2022/04/02 18:06:49;;;;;;;6.03;1.10;;;3.50;83.70;;;;;;10386115;28;20083;-62
2022/04/02 18:11:51;;;;;;;3.08;1.17;;;3.50;84.60;;;;;;10385239;28;20045;-64
2022/04/02 18:16:58;;;;;;;2.47;0.93;;;3.40;84.30;;;;;;10381471;28;20041;-63
2022/04/02 18:22:04;;;;;;;2.40;1.23;;;3.40;84.30;;;;;;10379877;28;20060;-62
2022/04/02 18:27:06;;;;;;;3.85;1.17;;;3.40;84.90;;;;;;10386596;28;20515;-62
2022/04/02 18:32:09;;;;;;;2.85;1.00;;;3.30;86.10;;;;;;10386936;28;20057;-62
2022/04/02 18:37:11;;;;;;;1.95;1.25;;;3.30;85.40;;;;;;10382176;28;20045;-63
2022/04/02 18:42:13;;;;;;;2.42;1.00;;;3.30;85.30;;;;;;10385319;28;20229;-64
2022/04/02 18:47:17;;;;;;;1.75;0.93;;;3.20;85.80;;;;;;10376495;28;20076;-64
2022/04/02 18:52:20;;;;;;;3.22;1.40;;;3.20;85.90;;;;;;10379024;28;20507;-63
2022/04/02 18:57:22;;;;;;;4.40;1.30;;;3.20;86.10;;;;;;10381890;28;20045;-64
2022/04/02 19:02:24;;;;;;;5.15;1.13;;;3.20;85.70;;;;;;10384114;28;20037;-64
2022/04/02 19:07:26;;;;;;;3.70;1.27;;;3.20;85.10;;;;;;10391885;28;20057;-63
2022/04/02 19:12:28;;;;;;;3.53;1.40;;;3.10;84.80;;;;;;10390356;28;20388;-64
2022/04/02 19:17:30;;;;;;;4.90;1.30;;;3.20;85.20;;;;;;10391176;28;20049;-64
2022/04/02 19:22:34;;;;;;;5.45;1.45;;;3.20;82.60;;;;;;10386614;28;20073;-64
2022/04/02 19:27:35;;;;;;;2.17;1.20;;;3.20;83.40;;;;;;10381811;28;20053;-64
2022/04/02 19:32:37;;;;;;;3.83;1.30;;;3.20;84.00;;;;;;10386660;28;20080;-64
2022/04/02 19:37:42;;;;;;;3.42;1.10;;;3.20;84.30;;;;;;10388097;28;20045;-64
2022/04/02 19:42:43;;;;;;;3.90;1.48;;;3.10;83.70;;;;;;10387625;28;20501;-65
2022/04/02 19:47:48;;;;;;;3.05;1.27;;;3.10;83.90;;;;;;10390246;28;20099;-63
2022/04/02 19:52:50;;;;;;;3.50;1.42;;;3.10;85.30;;;;;;10385410;28;20072;-62
2022/04/02 19:57:52;;;;;;;4.55;1.00;;;3.10;85.60;;;;;;10392693;28;20051;-62
2022/04/02 20:02:53;;;;;;;5.13;1.35;;;3.10;86.10;;;;;;10388930;28;20057;-62
2022/04/02 20:07:55;;;;;;;2.58;1.10;;;3.00;86.10;;;;;;10390652;28;20045;-64
2022/04/02 20:12:58;;;;;;;2.15;1.15;;;3.00;84.90;;;;;;10390754;28;20049;-64
2022/04/02 20:17:59;;;;;;;3.25;1.25;;;2.90;85.40;;;;;;10391020;28;20061;-64
2022/04/02 20:23:01;;;;;;;3.60;1.13;;;2.90;84.80;;;;;;10387128;28;20049;-64
2022/04/02 20:28:05;;;;;;;2.95;1.02;;;2.90;85.50;;;;;;10388050;28;20123;-64
2022/04/02 20:33:07;;;;;;;5.40;1.10;;;2.80;85.30;;;;;;10386487;28;20403;-64
2022/04/02 20:38:09;;;;;;;3.15;1.05;;;2.80;85.60;;;;;;10389282;28;20107;-63
2022/04/02 20:43:11;;;;;;;3.75;1.20;;;2.80;86.00;;;;;;10387439;28;20049;-64
2022/04/02 20:48:13;;;;;;;2.63;1.08;;;2.80;86.40;;;;;;10379696;28;20420;-64
2022/04/02 20:53:15;;;;;;;3.35;1.30;;;2.70;86.30;;;;;;10386130;28;20041;-64
2022/04/02 20:58:17;;;;;;;5.93;1.33;;;2.70;86.40;;;;;;10382254;28;20483;-63
2022/04/02 21:03:19;;;;;;;3.92;1.25;;;2.70;87.50;;;;;;10383718;28;20046;-63
2022/04/02 21:08:21;;;;;;;10.15;1.52;;;2.60;87.80;;;;;;10389246;28;20052;-63
2022/04/02 21:13:23;;;;;;;3.03;1.27;;;2.60;88.20;;;;;;10387068;28;20099;-63
2022/04/02 21:18:25;;;;;;;3.38;1.20;;;2.50;88.00;;;;;;10386877;28;20058;-63
2022/04/02 21:23:26;;;;;;;2.33;1.10;;;2.50;87.50;;;;;;10383399;28;20046;-63
2022/04/02 21:28:28;;;;;;;2.97;1.17;;;2.50;87.20;;;;;;10383235;28;20041;-64
2022/04/02 21:33:30;;;;;;;2.95;1.42;;;2.50;88.20;;;;;;10385304;28;20381;-63
2022/04/02 21:38:31;;;;;;;1.92;1.05;;;2.50;87.50;;;;;;10386722;28;20072;-64
2022/04/02 21:43:33;;;;;;;3.95;1.40;;;2.40;87.10;;;;;;10385443;28;20045;-64
2022/04/02 21:48:35;;;;;;;2.83;1.10;;;2.40;86.70;;;;;;10384985;28;20111;-63
2022/04/02 21:53:37;;;;;;;3.03;1.30;;;2.40;87.40;;;;;;10385856;28;20041;-63
2022/04/02 21:58:39;;;;;;;4.43;0.98;;;2.40;87.90;;;;;;10383109;28;20060;-64
2022/04/02 22:03:41;;;;;;;1.90;1.02;;;2.30;88.20;;;;;;10386303;28;20045;-61
2022/04/02 22:08:43;;;;;;;2.92;1.10;;;2.20;87.40;;;;;;10385878;28;20112;-62
2022/04/02 22:13:44;;;;;;;2.60;1.80;;;2.20;87.80;;;;;;10386056;28;20037;-62
2022/04/02 22:18:46;;;;;;;2.50;1.08;;;2.20;88.40;;;;;;10386537;28;20447;-62
2022/04/02 22:23:48;;;;;;;4.00;1.10;;;2.10;89.20;;;;;;10383331;28;20491;-62
2022/04/02 22:28:50;;;;;;;2.40;1.20;;;2.10;88.90;;;;;;10378259;28;20141;-62
2022/04/02 22:33:52;;;;;;;2.20;1.00;;;2.00;88.50;;;;;;10384999;28;20053;-61
2022/04/02 22:38:54;;;;;;;3.90;1.08;;;2.00;89.40;;;;;;10392039;28;20037;-62
2022/04/02 22:43:55;;;;;;;2.38;1.17;;;1.90;91.60;;;;;;10391388;28;20044;-64
2022/04/02 22:48:57;;;;;;;2.83;1.08;;;1.90;92.10;;;;;;10395083;28;20049;-64
2022/04/02 22:53:59;;;;;;;2.30;0.90;;;1.70;91.50;;;;;;10391115;28;20630;-63
2022/04/02 22:59:01;;;;;;;2.88;1.05;;;1.60;91.40;;;;;;10393087;28;20119;-63
2022/04/02 23:04:03;;;;;;;4.35;1.08;;;1.60;91.90;;;;;;10391171;28;20475;-63
2022/04/02 23:09:04;;;;;;;4.22;1.40;;;1.60;93.10;;;;;;10393002;28;20045;-63
2022/04/02 23:14:06;;;;;;;4.10;1.02;;;1.50;93.80;;;;;;10394860;28;20087;-63
2022/04/02 23:19:08;;;;;;;2.83;1.15;;;1.50;93.70;;;;;;10391754;28;20589;-63
2022/04/02 23:24:10;;;;;;;3.85;1.27;;;1.40;94.70;;;;;;10386240;28;20458;-63
2022/04/02 23:29:12;;;;;;;5.13;1.95;;;1.40;97.50;;;;;;10392033;28;20069;-63
2022/04/02 23:34:13;;;;;;;4.72;1.40;;;1.40;97.70;;;;;;10392036;28;20041;-63
2022/04/02 23:39:15;;;;;;;2.17;1.10;;;1.30;96.80;;;;;;10391534;28;20111;-63
2022/04/02 23:44:17;;;;;;;3.00;1.10;;;1.30;97.90;;;;;;10389728;28;20049;-63
2022/04/02 23:49:19;;;;;;;4.07;1.15;;;1.20;96.60;;;;;;10390601;28;20042;-63
2022/04/02 23:54:20;;;;;;;4.07;1.95;;;1.20;98.50;;;;;;10392197;28;20506;-63
2022/04/02 23:59:23;;;;;;;4.28;1.45;;;1.20;99.10;;;;;;10390492;28;20158;-63
